sensor_id;sensor_type;location;lat;lon;timestamp;temperature;humidity
81266;DHT22;70748;52.510;13.410;2023-08-24T00:00:56;18.90;69.40
81266;DHT22;70748;52.510;13.410;2023-08-24T00:03:21;18.90;70.10
81266;DHT22;70748;52.510;13.410;2023-08-24T00:05:48;18.90;70.00
81266;DHT22;70748;52.510;13.410;2023-08-24T00:08:13;18.90;70.10
81266;DHT22;70748;52.510;13.410;2023-08-24T00:10:39;18.90;70.70
81266;DHT22;70748;52.510;13.410;2023-08-24T00:13:05;18.90;70.70
81266;DHT22;70748;52.510;13.410;2023-08-24T00:15:31;18.80;70.30
81266;DHT22;70748;52.510;13.410;2023-08-24T00:17:57;18.80;70.40
81266;DHT22;70748;52.510;13.410;2023-08-24T00:20:22;18.80;71.00
81266;DHT22;70748;52.510;13.410;2023-08-24T00:22:48;18.80;70.90
81266;DHT22;70748;52.510;13.410;2023-08-24T00:25:14;18.80;71.00
81266;DHT22;70748;52.510;13.410;2023-08-24T00:27:40;18.70;71.10
81266;DHT22;70748;52.510;13.410;2023-08-24T00:30:07;18.70;71.30
81266;DHT22;70748;52.510;13.410;2023-08-24T00:32:36;18.70;71.20
81266;DHT22;70748;52.510;13.410;2023-08-24T00:35:03;18.70;71.00
81266;DHT22;70748;52.510;13.410;2023-08-24T00:37:31;18.60;70.90
81266;DHT22;70748;52.510;13.410;2023-08-24T00:39:59;18.60;71.00
81266;DHT22;70748;52.510;13.410;2023-08-24T00:42:25;18.60;71.60
81266;DHT22;70748;52.510;13.410;2023-08-24T00:44:51;18.60;71.50
81266;DHT22;70748;52.510;13.410;2023-08-24T00:47:17;18.60;71.50
81266;DHT22;70748;52.510;13.410;2023-08-24T00:49:43;18.60;71.60
81266;DHT22;70748;52.510;13.410;2023-08-24T00:52:09;18.50;71.60
81266;DHT22;70748;52.510;13.410;2023-08-24T00:54:37;18.50;71.40
81266;DHT22;70748;52.510;13.410;2023-08-24T00:57:05;18.50;71.30
81266;DHT22;70748;52.510;13.410;2023-08-24T00:59:31;18.40;71.60
81266;DHT22;70748;52.510;13.410;2023-08-24T01:01:59;18.50;71.50
81266;DHT22;70748;52.510;13.410;2023-08-24T01:04:25;18.50;71.90
81266;DHT22;70748;52.510;13.410;2023-08-24T01:06:51;18.50;72.00
81266;DHT22;70748;52.510;13.410;2023-08-24T01:09:18;18.40;71.90
81266;DHT22;70748;52.510;13.410;2023-08-24T01:11:58;18.40;72.20
81266;DHT22;70748;52.510;13.410;2023-08-24T01:17:11;18.40;72.40
81266;DHT22;70748;52.510;13.410;2023-08-24T01:19:42;18.40;72.40
81266;DHT22;70748;52.510;13.410;2023-08-24T01:25:16;18.50;72.40
81266;DHT22;70748;52.510;13.410;2023-08-24T01:27:43;18.50;72.40
81266;DHT22;70748;52.510;13.410;2023-08-24T01:30:09;18.50;72.50
81266;DHT22;70748;52.510;13.410;2023-08-24T01:32:36;18.50;72.50
81266;DHT22;70748;52.510;13.410;2023-08-24T01:35:03;18.60;72.90
81266;DHT22;70748;52.510;13.410;2023-08-24T01:37:29;18.60;73.10
81266;DHT22;70748;52.510;13.410;2023-08-24T01:43:01;18.60;73.00
81266;DHT22;70748;52.510;13.410;2023-08-24T01:45:29;18.60;73.10
81266;DHT22;70748;52.510;13.410;2023-08-24T01:47:57;18.70;72.80
81266;DHT22;70748;52.510;13.410;2023-08-24T01:50:24;18.70;72.50
81266;DHT22;70748;52.510;13.410;2023-08-24T01:52:50;18.80;72.60
81266;DHT22;70748;52.510;13.410;2023-08-24T01:55:20;18.90;72.60
81266;DHT22;70748;52.510;13.410;2023-08-24T01:57:47;18.90;72.80
81266;DHT22;70748;52.510;13.410;2023-08-24T02:00:13;19.00;72.60
81266;DHT22;70748;52.510;13.410;2023-08-24T02:02:39;19.00;72.30
81266;DHT22;70748;52.510;13.410;2023-08-24T02:05:05;19.00;72.10
81266;DHT22;70748;52.510;13.410;2023-08-24T02:07:31;19.00;72.00
81266;DHT22;70748;52.510;13.410;2023-08-24T02:09:57;19.10;71.90
81266;DHT22;70748;52.510;13.410;2023-08-24T02:12:22;19.10;71.80
81266;DHT22;70748;52.510;13.410;2023-08-24T02:14:48;19.00;72.00
81266;DHT22;70748;52.510;13.410;2023-08-24T02:17:14;19.10;72.10
81266;DHT22;70748;52.510;13.410;2023-08-24T02:19:40;19.10;72.90
81266;DHT22;70748;52.510;13.410;2023-08-24T02:22:07;19.10;71.80
81266;DHT22;70748;52.510;13.410;2023-08-24T02:24:33;19.20;71.60
81266;DHT22;70748;52.510;13.410;2023-08-24T02:26:59;19.30;71.60
81266;DHT22;70748;52.510;13.410;2023-08-24T02:29:25;19.30;71.60
81266;DHT22;70748;52.510;13.410;2023-08-24T02:31:50;19.40;72.10
81266;DHT22;70748;52.510;13.410;2023-08-24T02:34:17;19.50;72.10
81266;DHT22;70748;52.510;13.410;2023-08-24T02:36:43;19.60;72.00
81266;DHT22;70748;52.510;13.410;2023-08-24T02:39:08;19.50;71.60
81266;DHT22;70748;52.510;13.410;2023-08-24T02:41:34;19.70;71.40
81266;DHT22;70748;52.510;13.410;2023-08-24T02:44:01;19.70;71.20
81266;DHT22;70748;52.510;13.410;2023-08-24T02:46:26;19.70;71.10
81266;DHT22;70748;52.510;13.410;2023-08-24T02:48:52;19.70;71.00
81266;DHT22;70748;52.510;13.410;2023-08-24T02:51:20;19.80;71.00
81266;DHT22;70748;52.510;13.410;2023-08-24T02:53:46;19.90;70.90
81266;DHT22;70748;52.510;13.410;2023-08-24T02:56:11;19.90;70.80
81266;DHT22;70748;52.510;13.410;2023-08-24T02:58:38;19.90;70.60
81266;DHT22;70748;52.510;13.410;2023-08-24T03:01:05;19.90;70.60
81266;DHT22;70748;52.510;13.410;2023-08-24T03:03:35;20.00;71.00
81266;DHT22;70748;52.510;13.410;2023-08-24T03:06:03;20.00;71.00
81266;DHT22;70748;52.510;13.410;2023-08-24T03:08:30;20.00;71.00
81266;DHT22;70748;52.510;13.410;2023-08-24T03:10:57;20.00;70.90
81266;DHT22;70748;52.510;13.410;2023-08-24T03:13:22;20.00;71.00
81266;DHT22;70748;52.510;13.410;2023-08-24T03:15:49;20.10;71.10
81266;DHT22;70748;52.510;13.410;2023-08-24T03:18:16;20.10;71.00
81266;DHT22;70748;52.510;13.410;2023-08-24T03:20:43;20.10;71.10
81266;DHT22;70748;52.510;13.410;2023-08-24T03:23:09;20.10;71.10
81266;DHT22;70748;52.510;13.410;2023-08-24T03:25:40;20.20;71.10
81266;DHT22;70748;52.510;13.410;2023-08-24T03:28:07;20.10;71.00
81266;DHT22;70748;52.510;13.410;2023-08-24T03:30:38;20.20;70.90
81266;DHT22;70748;52.510;13.410;2023-08-24T03:33:05;20.20;71.00
81266;DHT22;70748;52.510;13.410;2023-08-24T03:35:31;20.20;70.80
81266;DHT22;70748;52.510;13.410;2023-08-24T03:37:57;20.20;70.60
81266;DHT22;70748;52.510;13.410;2023-08-24T03:40:23;20.20;70.30
81266;DHT22;70748;52.510;13.410;2023-08-24T03:42:49;20.20;70.30
81266;DHT22;70748;52.510;13.410;2023-08-24T03:45:15;20.20;70.60
81266;DHT22;70748;52.510;13.410;2023-08-24T03:47:41;20.20;70.20
81266;DHT22;70748;52.510;13.410;2023-08-24T03:50:07;20.20;69.90
81266;DHT22;70748;52.510;13.410;2023-08-24T03:52:32;20.20;69.60
81266;DHT22;70748;52.510;13.410;2023-08-24T03:54:58;20.20;69.50
81266;DHT22;70748;52.510;13.410;2023-08-24T03:57:24;20.20;69.40
81266;DHT22;70748;52.510;13.410;2023-08-24T03:59:49;20.20;69.50
81266;DHT22;70748;52.510;13.410;2023-08-24T04:02:15;20.20;69.40
81266;DHT22;70748;52.510;13.410;2023-08-24T04:04:41;20.20;69.00
81266;DHT22;70748;52.510;13.410;2023-08-24T04:07:07;20.20;68.80
81266;DHT22;70748;52.510;13.410;2023-08-24T04:09:33;20.20;68.70
81266;DHT22;70748;52.510;13.410;2023-08-24T04:11:58;20.30;68.80
81266;DHT22;70748;52.510;13.410;2023-08-24T04:14:24;20.30;68.70
81266;DHT22;70748;52.510;13.410;2023-08-24T04:16:50;20.30;68.70
81266;DHT22;70748;52.510;13.410;2023-08-24T04:19:15;20.30;68.70
81266;DHT22;70748;52.510;13.410;2023-08-24T04:21:41;20.30;68.30
81266;DHT22;70748;52.510;13.410;2023-08-24T04:24:07;20.30;68.00
81266;DHT22;70748;52.510;13.410;2023-08-24T04:26:33;20.30;67.80
81266;DHT22;70748;52.510;13.410;2023-08-24T04:28:58;20.30;67.80
81266;DHT22;70748;52.510;13.410;2023-08-24T04:31:24;20.30;67.50
81266;DHT22;70748;52.510;13.410;2023-08-24T04:33:50;20.30;67.70
81266;DHT22;70748;52.510;13.410;2023-08-24T04:36:15;20.40;67.60
81266;DHT22;70748;52.510;13.410;2023-08-24T04:38:41;20.40;67.50
81266;DHT22;70748;52.510;13.410;2023-08-24T04:41:08;20.40;67.30
81266;DHT22;70748;52.510;13.410;2023-08-24T04:43:34;20.40;67.00
81266;DHT22;70748;52.510;13.410;2023-08-24T04:46:02;20.40;66.80
81266;DHT22;70748;52.510;13.410;2023-08-24T04:48:27;20.40;66.50
81266;DHT22;70748;52.510;13.410;2023-08-24T04:50:58;20.40;66.40
81266;DHT22;70748;52.510;13.410;2023-08-24T04:53:24;20.50;66.40
81266;DHT22;70748;52.510;13.410;2023-08-24T04:55:50;20.50;66.20
81266;DHT22;70748;52.510;13.410;2023-08-24T04:58:16;20.40;66.10
81266;DHT22;70748;52.510;13.410;2023-08-24T05:00:42;20.40;66.30
81266;DHT22;70748;52.510;13.410;2023-08-24T05:03:08;20.40;66.40
81266;DHT22;70748;52.510;13.410;2023-08-24T05:05:35;20.40;66.40
81266;DHT22;70748;52.510;13.410;2023-08-24T05:08:02;20.40;66.60
81266;DHT22;70748;52.510;13.410;2023-08-24T05:10:32;20.40;66.40
81266;DHT22;70748;52.510;13.410;2023-08-24T05:12:58;20.50;66.60
81266;DHT22;70748;52.510;13.410;2023-08-24T05:15:24;20.60;66.80
81266;DHT22;70748;52.510;13.410;2023-08-24T05:17:49;20.70;67.00
81266;DHT22;70748;52.510;13.410;2023-08-24T05:20:17;20.80;67.00
81266;DHT22;70748;52.510;13.410;2023-08-24T05:22:44;20.90;66.70
81266;DHT22;70748;52.510;13.410;2023-08-24T05:25:09;21.00;66.80
81266;DHT22;70748;52.510;13.410;2023-08-24T05:27:36;21.10;66.40
81266;DHT22;70748;52.510;13.410;2023-08-24T05:30:02;21.10;66.00
81266;DHT22;70748;52.510;13.410;2023-08-24T05:32:28;21.20;66.00
81266;DHT22;70748;52.510;13.410;2023-08-24T05:34:53;21.30;65.70
81266;DHT22;70748;52.510;13.410;2023-08-24T05:37:19;21.40;65.60
81266;DHT22;70748;52.510;13.410;2023-08-24T05:39:44;21.60;66.00
81266;DHT22;70748;52.510;13.410;2023-08-24T05:42:10;21.70;64.70
81266;DHT22;70748;52.510;13.410;2023-08-24T05:44:36;21.70;64.70
81266;DHT22;70748;52.510;13.410;2023-08-24T05:47:01;21.80;64.80
81266;DHT22;70748;52.510;13.410;2023-08-24T05:49:27;21.90;64.30
81266;DHT22;70748;52.510;13.410;2023-08-24T05:51:53;22.00;63.70
81266;DHT22;70748;52.510;13.410;2023-08-24T05:54:19;22.20;62.70
81266;DHT22;70748;52.510;13.410;2023-08-24T05:56:45;22.30;62.10
81266;DHT22;70748;52.510;13.410;2023-08-24T05:59:11;22.40;62.00
81266;DHT22;70748;52.510;13.410;2023-08-24T06:01:37;22.50;62.70
81266;DHT22;70748;52.510;13.410;2023-08-24T06:04:07;22.60;62.60
81266;DHT22;70748;52.510;13.410;2023-08-24T06:06:33;22.80;62.90
81266;DHT22;70748;52.510;13.410;2023-08-24T06:08:59;22.90;61.70
81266;DHT22;70748;52.510;13.410;2023-08-24T06:11:24;22.90;60.90
81266;DHT22;70748;52.510;13.410;2023-08-24T06:13:50;22.90;59.10
81266;DHT22;70748;52.510;13.410;2023-08-24T06:16:19;23.00;59.60
81266;DHT22;70748;52.510;13.410;2023-08-24T06:18:44;23.00;59.60
81266;DHT22;70748;52.510;13.410;2023-08-24T06:21:10;23.00;58.60
81266;DHT22;70748;52.510;13.410;2023-08-24T06:23:36;23.00;58.80
81266;DHT22;70748;52.510;13.410;2023-08-24T06:26:01;22.90;57.60
81266;DHT22;70748;52.510;13.410;2023-08-24T06:28:27;23.00;57.90
81266;DHT22;70748;52.510;13.410;2023-08-24T06:30:55;23.10;57.90
81266;DHT22;70748;52.510;13.410;2023-08-24T06:33:21;23.20;57.00
81266;DHT22;70748;52.510;13.410;2023-08-24T06:35:46;23.30;57.20
81266;DHT22;70748;52.510;13.410;2023-08-24T06:38:13;23.40;57.30
81266;DHT22;70748;52.510;13.410;2023-08-24T06:40:39;23.50;57.10
81266;DHT22;70748;52.510;13.410;2023-08-24T06:43:05;23.60;57.10
81266;DHT22;70748;52.510;13.410;2023-08-24T06:45:31;23.80;57.00
81266;DHT22;70748;52.510;13.410;2023-08-24T06:47:57;23.80;56.80
81266;DHT22;70748;52.510;13.410;2023-08-24T06:50:22;24.20;56.80
81266;DHT22;70748;52.510;13.410;2023-08-24T06:52:48;25.20;54.60
81266;DHT22;70748;52.510;13.410;2023-08-24T06:55:14;26.80;50.50
81266;DHT22;70748;52.510;13.410;2023-08-24T06:57:40;28.60;47.40
81266;DHT22;70748;52.510;13.410;2023-08-24T07:00:06;30.50;43.50
81266;DHT22;70748;52.510;13.410;2023-08-24T07:02:36;31.90;40.80
81266;DHT22;70748;52.510;13.410;2023-08-24T07:05:03;33.10;37.20
81266;DHT22;70748;52.510;13.410;2023-08-24T07:07:34;34.30;35.10
81266;DHT22;70748;52.510;13.410;2023-08-24T07:10:00;35.40;33.30
81266;DHT22;70748;52.510;13.410;2023-08-24T07:12:26;36.10;32.30
81266;DHT22;70748;52.510;13.410;2023-08-24T07:14:51;36.90;30.60
81266;DHT22;70748;52.510;13.410;2023-08-24T07:17:17;37.60;30.00
81266;DHT22;70748;52.510;13.410;2023-08-24T07:19:43;38.10;28.50
81266;DHT22;70748;52.510;13.410;2023-08-24T07:22:09;38.80;28.10
81266;DHT22;70748;52.510;13.410;2023-08-24T07:24:34;39.20;27.30
81266;DHT22;70748;52.510;13.410;2023-08-24T07:27:02;39.80;27.40
81266;DHT22;70748;52.510;13.410;2023-08-24T07:29:29;40.20;26.40
81266;DHT22;70748;52.510;13.410;2023-08-24T07:31:54;40.50;26.10
81266;DHT22;70748;52.510;13.410;2023-08-24T07:34:20;40.80;26.10
81266;DHT22;70748;52.510;13.410;2023-08-24T07:36:48;41.30;25.50
81266;DHT22;70748;52.510;13.410;2023-08-24T07:39:14;41.80;24.50
81266;DHT22;70748;52.510;13.410;2023-08-24T07:41:41;41.80;24.80
81266;DHT22;70748;52.510;13.410;2023-08-24T07:44:07;41.70;24.10
81266;DHT22;70748;52.510;13.410;2023-08-24T07:46:33;42.10;24.50
81266;DHT22;70748;52.510;13.410;2023-08-24T07:48:59;42.40;23.50
81266;DHT22;70748;52.510;13.410;2023-08-24T07:51:25;42.70;23.30
81266;DHT22;70748;52.510;13.410;2023-08-24T07:53:50;43.00;23.50
81266;DHT22;70748;52.510;13.410;2023-08-24T07:56:17;43.30;23.40
81266;DHT22;70748;52.510;13.410;2023-08-24T07:58:44;43.40;23.40
81266;DHT22;70748;52.510;13.410;2023-08-24T08:01:09;43.70;22.70
81266;DHT22;70748;52.510;13.410;2023-08-24T08:03:35;44.00;22.20
81266;DHT22;70748;52.510;13.410;2023-08-24T08:06:01;44.40;22.70
81266;DHT22;70748;52.510;13.410;2023-08-24T08:08:27;44.60;21.30
81266;DHT22;70748;52.510;13.410;2023-08-24T08:11:00;44.40;21.70
81266;DHT22;70748;52.510;13.410;2023-08-24T08:13:27;44.10;22.10
81266;DHT22;70748;52.510;13.410;2023-08-24T08:15:53;43.60;22.00
81266;DHT22;70748;52.510;13.410;2023-08-24T08:18:19;42.90;22.40
81266;DHT22;70748;52.510;13.410;2023-08-24T08:20:45;41.80;23.60
81266;DHT22;70748;52.510;13.410;2023-08-24T08:23:10;41.00;23.60
81266;DHT22;70748;52.510;13.410;2023-08-24T08:25:36;40.60;24.30
81266;DHT22;70748;52.510;13.410;2023-08-24T08:28:01;40.30;24.70
81266;DHT22;70748;52.510;13.410;2023-08-24T08:30:27;39.90;25.70
81266;DHT22;70748;52.510;13.410;2023-08-24T08:32:53;39.20;25.60
81266;DHT22;70748;52.510;13.410;2023-08-24T08:35:21;38.20;26.20
81266;DHT22;70748;52.510;13.410;2023-08-24T08:37:47;37.10;27.00
81266;DHT22;70748;52.510;13.410;2023-08-24T08:40:15;35.90;28.30
81266;DHT22;70748;52.510;13.410;2023-08-24T08:42:41;34.80;29.80
81266;DHT22;70748;52.510;13.410;2023-08-24T08:45:10;33.80;31.80
81266;DHT22;70748;52.510;13.410;2023-08-24T08:47:37;32.90;32.50
81266;DHT22;70748;52.510;13.410;2023-08-24T08:50:04;32.20;33.90
81266;DHT22;70748;52.510;13.410;2023-08-24T08:52:32;31.70;34.90
81266;DHT22;70748;52.510;13.410;2023-08-24T08:54:59;31.30;38.10
81266;DHT22;70748;52.510;13.410;2023-08-24T08:57:25;30.90;36.80
81266;DHT22;70748;52.510;13.410;2023-08-24T08:59:55;30.60;41.50
81266;DHT22;70748;52.510;13.410;2023-08-24T09:02:22;30.30;38.40
81266;DHT22;70748;52.510;13.410;2023-08-24T09:04:51;30.00;37.50
81266;DHT22;70748;52.510;13.410;2023-08-24T09:07:16;29.90;39.50
81266;DHT22;70748;52.510;13.410;2023-08-24T09:09:43;29.70;38.60
81266;DHT22;70748;52.510;13.410;2023-08-24T09:12:08;29.70;40.20
81266;DHT22;70748;52.510;13.410;2023-08-24T09:14:34;29.70;39.10
81266;DHT22;70748;52.510;13.410;2023-08-24T09:17:00;30.30;39.60
81266;DHT22;70748;52.510;13.410;2023-08-24T09:19:30;32.20;36.20
81266;DHT22;70748;52.510;13.410;2023-08-24T09:22:01;33.70;32.50
81266;DHT22;70748;52.510;13.410;2023-08-24T09:24:34;34.10;32.40
81266;DHT22;70748;52.510;13.410;2023-08-24T09:27:19;33.90;32.00
81266;DHT22;70748;52.510;13.410;2023-08-24T09:29:50;33.40;32.80
81266;DHT22;70748;52.510;13.410;2023-08-24T09:32:21;33.20;32.90
81266;DHT22;70748;52.510;13.410;2023-08-24T09:34:47;33.20;35.20
81266;DHT22;70748;52.510;13.410;2023-08-24T09:37:16;34.30;32.90
81266;DHT22;70748;52.510;13.410;2023-08-24T09:39:42;35.80;30.70
81266;DHT22;70748;52.510;13.410;2023-08-24T09:42:08;37.40;29.10
81266;DHT22;70748;52.510;13.410;2023-08-24T09:44:34;39.80;25.90
81266;DHT22;70748;52.510;13.410;2023-08-24T09:46:59;40.50;25.30
81266;DHT22;70748;52.510;13.410;2023-08-24T09:49:26;40.10;25.80
81266;DHT22;70748;52.510;13.410;2023-08-24T09:51:56;40.60;25.70
81266;DHT22;70748;52.510;13.410;2023-08-24T09:54:28;42.10;24.40
81266;DHT22;70748;52.510;13.410;2023-08-24T09:56:55;43.70;23.10
81266;DHT22;70748;52.510;13.410;2023-08-24T09:59:26;44.30;22.60
81266;DHT22;70748;52.510;13.410;2023-08-24T10:01:54;45.60;20.80
81266;DHT22;70748;52.510;13.410;2023-08-24T10:04:24;46.40;20.00
81266;DHT22;70748;52.510;13.410;2023-08-24T10:07:08;46.80;20.20
81266;DHT22;70748;52.510;13.410;2023-08-24T10:12:10;48.20;18.70
81266;DHT22;70748;52.510;13.410;2023-08-24T10:17:05;48.90;18.50
81266;DHT22;70748;52.510;13.410;2023-08-24T10:19:32;48.60;18.40
81266;DHT22;70748;52.510;13.410;2023-08-24T10:22:00;48.80;17.90
81266;DHT22;70748;52.510;13.410;2023-08-24T10:24:27;49.30;18.40
81266;DHT22;70748;52.510;13.410;2023-08-24T10:26:53;49.60;18.30
81266;DHT22;70748;52.510;13.410;2023-08-24T10:29:19;49.20;18.00
81266;DHT22;70748;52.510;13.410;2023-08-24T10:31:45;50.00;17.90
81266;DHT22;70748;52.510;13.410;2023-08-24T10:34:12;50.00;17.40
81266;DHT22;70748;52.510;13.410;2023-08-24T10:36:41;50.10;17.80
81266;DHT22;70748;52.510;13.410;2023-08-24T10:39:07;50.40;17.30
81266;DHT22;70748;52.510;13.410;2023-08-24T10:41:49;50.40;17.10
81266;DHT22;70748;52.510;13.410;2023-08-24T10:44:34;50.80;16.90
81266;DHT22;70748;52.510;13.410;2023-08-24T10:49:38;50.80;17.20
81266;DHT22;70748;52.510;13.410;2023-08-24T10:54:50;49.90;17.20
81266;DHT22;70748;52.510;13.410;2023-08-24T10:57:24;50.20;17.10
81266;DHT22;70748;52.510;13.410;2023-08-24T11:00:01;50.20;17.00
81266;DHT22;70748;52.510;13.410;2023-08-24T11:02:40;50.20;18.20
81266;DHT22;70748;52.510;13.410;2023-08-24T11:07:57;50.50;16.90
81266;DHT22;70748;52.510;13.410;2023-08-24T11:10:25;50.60;17.40
81266;DHT22;70748;52.510;13.410;2023-08-24T11:20:57;51.00;16.60
81266;DHT22;70748;52.510;13.410;2023-08-24T11:23:25;50.80;16.90
81266;DHT22;70748;52.510;13.410;2023-08-24T11:25:53;51.00;17.20
81266;DHT22;70748;52.510;13.410;2023-08-24T11:28:22;50.50;17.40
81266;DHT22;70748;52.510;13.410;2023-08-24T11:30:48;50.10;17.40
81266;DHT22;70748;52.510;13.410;2023-08-24T11:33:14;50.30;16.50
81266;DHT22;70748;52.510;13.410;2023-08-24T11:35:44;50.30;16.80
81266;DHT22;70748;52.510;13.410;2023-08-24T11:38:10;50.10;16.80
81266;DHT22;70748;52.510;13.410;2023-08-24T11:40:36;49.80;17.90
81266;DHT22;70748;52.510;13.410;2023-08-24T11:43:03;49.80;17.60
81266;DHT22;70748;52.510;13.410;2023-08-24T11:45:36;50.20;17.70
81266;DHT22;70748;52.510;13.410;2023-08-24T11:48:03;50.20;17.00
81266;DHT22;70748;52.510;13.410;2023-08-24T11:50:30;50.20;17.70
81266;DHT22;70748;52.510;13.410;2023-08-24T11:52:56;50.40;17.40
81266;DHT22;70748;52.510;13.410;2023-08-24T11:55:23;50.20;17.20
81266;DHT22;70748;52.510;13.410;2023-08-24T11:57:49;50.50;16.90
81266;DHT22;70748;52.510;13.410;2023-08-24T12:00:15;50.60;16.70
81266;DHT22;70748;52.510;13.410;2023-08-24T12:02:42;50.60;17.20
81266;DHT22;70748;52.510;13.410;2023-08-24T12:05:20;50.70;16.80
81266;DHT22;70748;52.510;13.410;2023-08-24T12:07:46;50.70;16.30
81266;DHT22;70748;52.510;13.410;2023-08-24T12:10:12;50.20;17.20
81266;DHT22;70748;52.510;13.410;2023-08-24T12:12:38;50.20;17.90
81266;DHT22;70748;52.510;13.410;2023-08-24T12:15:04;50.30;17.10
81266;DHT22;70748;52.510;13.410;2023-08-24T12:17:30;50.30;17.00
81266;DHT22;70748;52.510;13.410;2023-08-24T12:20:07;50.00;16.40
81266;DHT22;70748;52.510;13.410;2023-08-24T12:22:38;49.70;17.00
81266;DHT22;70748;52.510;13.410;2023-08-24T12:25:04;49.70;17.40
81266;DHT22;70748;52.510;13.410;2023-08-24T12:27:31;49.20;17.70
81266;DHT22;70748;52.510;13.410;2023-08-24T12:30:01;48.70;17.10
81266;DHT22;70748;52.510;13.410;2023-08-24T12:32:44;48.40;18.40
81266;DHT22;70748;52.510;13.410;2023-08-24T12:35:10;48.30;18.60
81266;DHT22;70748;52.510;13.410;2023-08-24T12:37:36;47.80;18.60
81266;DHT22;70748;52.510;13.410;2023-08-24T12:40:03;47.60;19.10
81266;DHT22;70748;52.510;13.410;2023-08-24T12:42:32;47.50;18.80
81266;DHT22;70748;52.510;13.410;2023-08-24T12:44:57;47.70;18.80
81266;DHT22;70748;52.510;13.410;2023-08-24T12:47:23;48.20;18.40
81266;DHT22;70748;52.510;13.410;2023-08-24T12:49:49;48.20;18.40
81266;DHT22;70748;52.510;13.410;2023-08-24T12:52:16;47.70;18.40
81266;DHT22;70748;52.510;13.410;2023-08-24T12:54:42;47.50;18.60
81266;DHT22;70748;52.510;13.410;2023-08-24T12:57:08;47.40;19.10
81266;DHT22;70748;52.510;13.410;2023-08-24T12:59:33;47.10;18.90
81266;DHT22;70748;52.510;13.410;2023-08-24T13:01:59;47.50;18.80
81266;DHT22;70748;52.510;13.410;2023-08-24T13:04:26;47.70;19.20
81266;DHT22;70748;52.510;13.410;2023-08-24T13:06:53;47.70;18.90
81266;DHT22;70748;52.510;13.410;2023-08-24T13:09:19;47.50;18.60
81266;DHT22;70748;52.510;13.410;2023-08-24T13:11:44;47.40;19.00
81266;DHT22;70748;52.510;13.410;2023-08-24T13:14:10;47.10;19.60
81266;DHT22;70748;52.510;13.410;2023-08-24T13:16:36;46.80;19.40
81266;DHT22;70748;52.510;13.410;2023-08-24T13:19:01;45.80;19.70
81266;DHT22;70748;52.510;13.410;2023-08-24T13:21:27;44.00;22.10
81266;DHT22;70748;52.510;13.410;2023-08-24T13:23:53;42.10;23.70
81266;DHT22;70748;52.510;13.410;2023-08-24T13:26:20;40.60;24.80
81266;DHT22;70748;52.510;13.410;2023-08-24T13:28:50;39.60;25.90
81266;DHT22;70748;52.510;13.410;2023-08-24T13:31:16;38.50;26.70
81266;DHT22;70748;52.510;13.410;2023-08-24T13:33:42;37.70;26.90
81266;DHT22;70748;52.510;13.410;2023-08-24T13:36:07;36.90;27.60
81266;DHT22;70748;52.510;13.410;2023-08-24T13:38:33;35.70;27.90
81266;DHT22;70748;52.510;13.410;2023-08-24T13:40:59;35.10;29.40
81266;DHT22;70748;52.510;13.410;2023-08-24T13:43:24;34.80;31.90
81266;DHT22;70748;52.510;13.410;2023-08-24T13:45:51;34.70;31.60
81266;DHT22;70748;52.510;13.410;2023-08-24T13:48:17;34.60;30.90
81266;DHT22;70748;52.510;13.410;2023-08-24T13:50:50;34.40;32.40
81266;DHT22;70748;52.510;13.410;2023-08-24T13:53:16;34.20;31.50
81266;DHT22;70748;52.510;13.410;2023-08-24T13:55:41;34.00;33.20
81266;DHT22;70748;52.510;13.410;2023-08-24T13:58:08;33.80;32.80
81266;DHT22;70748;52.510;13.410;2023-08-24T14:00:34;33.70;32.40
81266;DHT22;70748;52.510;13.410;2023-08-24T14:02:59;33.50;32.00
81266;DHT22;70748;52.510;13.410;2023-08-24T14:05:25;33.30;32.20
81266;DHT22;70748;52.510;13.410;2023-08-24T14:07:50;33.10;32.00
81266;DHT22;70748;52.510;13.410;2023-08-24T14:10:18;32.90;32.30
81266;DHT22;70748;52.510;13.410;2023-08-24T14:12:43;32.70;34.80
81266;DHT22;70748;52.510;13.410;2023-08-24T14:15:09;32.70;34.00
81266;DHT22;70748;52.510;13.410;2023-08-24T14:17:36;32.50;34.50
81266;DHT22;70748;52.510;13.410;2023-08-24T14:20:02;32.40;34.30
81266;DHT22;70748;52.510;13.410;2023-08-24T14:22:29;32.20;33.60
81266;DHT22;70748;52.510;13.410;2023-08-24T14:24:55;32.00;36.30
81266;DHT22;70748;52.510;13.410;2023-08-24T14:27:21;32.00;34.40
81266;DHT22;70748;52.510;13.410;2023-08-24T14:29:47;31.90;35.30
81266;DHT22;70748;52.510;13.410;2023-08-24T14:32:12;32.00;34.90
81266;DHT22;70748;52.510;13.410;2023-08-24T14:34:38;31.80;34.80
81266;DHT22;70748;52.510;13.410;2023-08-24T14:37:04;31.70;35.40
81266;DHT22;70748;52.510;13.410;2023-08-24T14:39:29;31.60;34.80
81266;DHT22;70748;52.510;13.410;2023-08-24T14:41:55;31.50;34.70
81266;DHT22;70748;52.510;13.410;2023-08-24T14:44:21;31.50;34.80
81266;DHT22;70748;52.510;13.410;2023-08-24T14:46:46;31.20;35.00
81266;DHT22;70748;52.510;13.410;2023-08-24T14:49:12;31.10;34.80
81266;DHT22;70748;52.510;13.410;2023-08-24T14:51:44;31.00;35.10
81266;DHT22;70748;52.510;13.410;2023-08-24T14:54:09;30.90;36.90
81266;DHT22;70748;52.510;13.410;2023-08-24T14:56:37;30.80;37.60
81266;DHT22;70748;52.510;13.410;2023-08-24T14:59:03;30.70;37.10
81266;DHT22;70748;52.510;13.410;2023-08-24T15:01:29;30.70;37.90
81266;DHT22;70748;52.510;13.410;2023-08-24T15:03:55;30.80;37.30
81266;DHT22;70748;52.510;13.410;2023-08-24T15:06:20;30.80;38.70
81266;DHT22;70748;52.510;13.410;2023-08-24T15:08:46;30.80;37.60
81266;DHT22;70748;52.510;13.410;2023-08-24T15:11:14;30.80;38.00
81266;DHT22;70748;52.510;13.410;2023-08-24T15:13:40;30.70;36.70
81266;DHT22;70748;52.510;13.410;2023-08-24T15:16:06;30.70;37.90
81266;DHT22;70748;52.510;13.410;2023-08-24T15:18:31;30.60;36.90
81266;DHT22;70748;52.510;13.410;2023-08-24T15:20:57;30.40;38.70
81266;DHT22;70748;52.510;13.410;2023-08-24T15:23:27;30.40;37.90
81266;DHT22;70748;52.510;13.410;2023-08-24T15:25:57;30.40;38.70
81266;DHT22;70748;52.510;13.410;2023-08-24T15:28:24;30.20;40.00
81266;DHT22;70748;52.510;13.410;2023-08-24T15:30:50;30.10;39.30
81266;DHT22;70748;52.510;13.410;2023-08-24T15:33:17;30.00;38.70
81266;DHT22;70748;52.510;13.410;2023-08-24T15:35:43;30.00;39.50
81266;DHT22;70748;52.510;13.410;2023-08-24T15:38:09;29.90;41.10
81266;DHT22;70748;52.510;13.410;2023-08-24T15:40:36;29.90;40.20
81266;DHT22;70748;52.510;13.410;2023-08-24T15:43:03;29.80;39.00